Terminal Aerodrome Forecast
Issued by NWS

Home | Current Version | Previous Version | Graphics & Text | Print | Product List | Glossary On
Versions: 1 2 3 4 5 6 7 8 9 10 11 12 13 14 15 16 17 18
000
FTUS43 KMPX 011135
TAFRNH
TAF
KRNH 011135Z 0112/0212 03018G24KT 2SM -SN OVC019
     FM011500 02016G22KT P6SM BKN025 OVC080
     FM011800 01013KT P6SM SCT020
     FM020000 34006KT P6SM SCT250
     FM021100 20005KT P6SM BKN250=

USA.gov is the U.S. government's official web portal to all federal, state and local government web resources and services.